createdAt,value
2023-05-25T06:48:38.784Z,27.46
2023-05-25T06:51:07.682Z,27.60
2023-05-25T06:53:36.980Z,27.55
2023-05-25T06:56:05.469Z,27.48
2023-05-25T06:58:33.454Z,27.42
2023-05-25T07:01:02.071Z,27.35
2023-05-25T07:03:30.085Z,27.38
2023-05-25T07:05:58.288Z,27.46
2023-05-25T07:08:29.613Z,27.73
2023-05-25T07:10:57.887Z,28.30
2023-05-25T07:13:26.264Z,28.74
2023-05-25T07:15:57.512Z,29.12
2023-05-25T07:18:26.108Z,29.58
2023-05-25T07:20:54.494Z,30.11
2023-05-25T07:23:22.770Z,30.37
2023-05-25T07:25:50.729Z,30.67
2023-05-25T07:28:21.049Z,30.91
2023-05-25T07:30:48.919Z,30.99
2023-05-25T07:33:17.307Z,31.02
2023-05-25T07:35:45.675Z,31.01
2023-05-25T07:38:14.053Z,30.92
2023-05-25T07:40:44.023Z,30.61
2023-05-25T07:43:12.347Z,30.31
2023-05-25T07:45:40.432Z,30.04
2023-05-25T07:48:09.245Z,29.85
2023-05-25T07:50:37.598Z,29.58
2023-05-25T07:53:05.931Z,29.33
2023-05-25T07:55:33.988Z,29.16
2023-05-25T07:58:02.147Z,29.12
2023-05-25T08:00:30.408Z,29.32
2023-05-25T08:02:59.280Z,29.66
2023-05-25T08:05:28.507Z,30.02
2023-05-25T08:07:56.739Z,30.13
2023-05-25T08:10:30.862Z,30.30
2023-05-25T08:12:59.271Z,30.53
2023-05-25T08:15:27.752Z,30.72
2023-05-25T08:17:56.008Z,30.85
2023-05-25T08:20:25.239Z,31.05
2023-05-25T08:22:53.849Z,31.10
2023-05-25T08:25:21.970Z,31.06
2023-05-25T08:27:50.346Z,31.03
2023-05-25T08:30:19.058Z,30.99
2023-05-25T08:32:47.478Z,31.12
2023-05-25T08:35:17.010Z,31.34
2023-05-25T08:37:46.500Z,31.42
2023-05-25T08:40:16.473Z,31.47
2023-05-25T08:42:46.092Z,31.61
2023-05-25T08:45:26.559Z,31.66
2023-05-25T08:48:10.715Z,31.95
2023-05-25T08:50:40.712Z,32.06
2023-05-25T08:53:11.382Z,32.24
2023-05-25T08:55:43.055Z,32.08
2023-05-25T08:58:23.479Z,32.00
2023-05-25T09:00:56.867Z,32.25
2023-05-25T09:03:25.193Z,32.37
2023-05-25T09:05:55.561Z,32.58
2023-05-25T09:08:24.817Z,32.89
2023-05-25T09:10:56.947Z,32.96
2023-05-25T09:13:25.970Z,33.10
2023-05-25T09:15:54.884Z,33.19
2023-05-25T09:18:23.151Z,33.22
2023-05-25T09:20:58.462Z,33.44
2023-05-25T09:23:27.038Z,33.60
2023-05-25T09:25:55.894Z,33.54
2023-05-25T09:28:27.394Z,33.35
2023-05-25T09:30:56.411Z,33.14
2023-05-25T09:33:24.595Z,33.23
2023-05-25T09:35:52.685Z,33.48
2023-05-25T09:38:21.832Z,33.77
2023-05-25T09:40:53.268Z,33.86
2023-05-25T09:43:36.556Z,33.80
2023-05-25T09:46:09.003Z,33.70
2023-05-25T09:48:37.702Z,33.55
2023-05-25T09:51:15.925Z,33.45
2023-05-25T09:53:44.856Z,33.43
2023-05-25T09:56:16.825Z,33.55
2023-05-25T09:58:45.459Z,33.88
2023-05-25T10:01:14.694Z,34.01
2023-05-25T10:04:02.801Z,34.02
2023-05-25T10:06:32.905Z,34.01
2023-05-25T10:09:01.699Z,33.85
2023-05-25T10:11:31.766Z,33.68
2023-05-25T10:14:05.605Z,33.75
2023-05-25T10:16:34.508Z,33.85
2023-05-25T10:19:31.924Z,33.67
2023-05-25T10:22:35.723Z,33.66
2023-05-25T10:25:11.547Z,33.79
2023-05-25T10:27:43.931Z,33.83
2023-05-25T10:30:14.246Z,33.65
2023-05-25T10:32:44.288Z,33.54
2023-05-25T10:35:18.895Z,33.62
2023-05-25T10:37:48.310Z,33.75
2023-05-25T10:40:16.562Z,33.57
2023-05-25T10:42:50.799Z,33.41
2023-05-25T10:45:20.107Z,33.41
2023-05-25T10:47:48.476Z,33.44
2023-05-25T10:50:28.983Z,33.35
2023-05-25T10:53:02.413Z,33.24
2023-05-25T10:55:53.442Z,33.24
2023-05-25T10:58:23.519Z,33.10
2023-05-25T11:01:07.344Z,32.86
2023-05-25T11:03:46.771Z,32.66
2023-05-25T11:06:21.460Z,32.51
2023-05-25T11:09:02.302Z,32.28
2023-05-25T11:11:49.980Z,32.05
2023-05-25T11:14:31.210Z,31.51
2023-05-25T11:17:13.591Z,30.51
2023-05-25T11:19:51.467Z,29.43
2023-05-25T11:22:32.012Z,28.61
2023-05-25T11:25:02.514Z,27.99
2023-05-25T11:27:34.781Z,27.35
2023-05-25T11:30:07.555Z,26.96
2023-05-25T11:32:59.243Z,26.64
2023-05-25T11:35:28.734Z,26.13
2023-05-25T11:37:57.939Z,25.73
2023-05-25T11:40:36.378Z,25.40
2023-05-25T11:43:07.863Z,25.12
2023-05-25T11:45:37.808Z,24.88
2023-05-25T11:48:06.177Z,24.71
2023-05-25T11:50:34.498Z,24.58
2023-05-25T11:53:21.083Z,24.48
2023-05-25T11:56:18.113Z,24.42
2023-05-25T11:58:58.921Z,24.45
2023-05-25T12:01:26.953Z,24.48
2023-05-25T12:03:58.326Z,24.56
2023-05-25T12:06:39.412Z,24.66
2023-05-25T12:09:14.995Z,24.84
2023-05-25T12:11:45.220Z,25.04
2023-05-25T12:14:14.373Z,25.28
2023-05-25T12:16:46.036Z,25.55
2023-05-25T12:19:14.305Z,25.92
2023-05-25T12:21:43.479Z,26.38
2023-05-25T12:24:14.856Z,26.83
2023-05-25T12:26:48.746Z,27.20
2023-05-25T12:29:17.361Z,27.59
2023-05-25T12:31:48.011Z,27.90
2023-05-25T12:34:20.761Z,28.11
2023-05-25T12:36:53.680Z,28.23
2023-05-25T12:39:38.648Z,28.37
2023-05-25T12:42:14.750Z,28.50
2023-05-25T12:44:45.743Z,28.57
2023-05-25T12:47:27.487Z,28.64
2023-05-25T12:50:14.064Z,28.62
2023-05-25T12:52:44.510Z,28.49
2023-05-25T12:55:26.507Z,28.36
2023-05-25T12:58:04.047Z,28.20
2023-05-25T13:00:35.781Z,28.05
2023-05-25T13:03:09.079Z,27.90
2023-05-25T13:05:38.371Z,27.77
2023-05-25T13:08:09.301Z,27.68
2023-05-25T13:10:37.808Z,27.71
2023-05-25T13:13:06.030Z,27.72
2023-05-25T13:15:34.065Z,27.75
2023-05-25T13:18:05.415Z,27.86
2023-05-25T13:20:33.670Z,27.97
2023-05-25T13:23:05.529Z,28.09
2023-05-25T13:25:53.941Z,28.15
2023-05-25T13:28:22.329Z,28.19
2023-05-25T13:31:00.966Z,28.23
2023-05-25T13:33:28.933Z,28.26
2023-05-25T13:35:58.054Z,28.21
2023-05-25T13:38:28.906Z,28.11
2023-05-25T13:40:57.668Z,28.04
2023-05-25T13:43:27.081Z,28.06
2023-05-25T13:45:56.182Z,28.13
2023-05-25T13:48:25.282Z,28.20
2023-05-25T13:50:53.164Z,28.33
2023-05-25T13:53:24.383Z,28.45
2023-05-25T13:55:52.948Z,28.56
2023-05-25T13:58:21.346Z,28.65
2023-05-25T14:00:49.610Z,28.69
2023-05-25T14:03:17.509Z,28.78
2023-05-25T14:06:01.202Z,28.77
2023-05-25T14:08:30.722Z,28.83
2023-05-25T14:11:02.585Z,28.90
2023-05-25T14:13:30.747Z,28.97
2023-05-25T14:15:58.894Z,29.08
2023-05-25T14:18:26.797Z,29.16
2023-05-25T14:20:55.271Z,29.13
2023-05-25T14:23:23.854Z,29.02
2023-05-25T14:25:54.891Z,28.85
2023-05-25T14:28:22.871Z,28.73
2023-05-25T14:30:51.043Z,28.61
2023-05-25T14:33:19.214Z,28.39
2023-05-25T14:35:47.762Z,28.21
2023-05-25T14:38:26.686Z,28.05
2023-05-25T14:40:56.535Z,27.89
2023-05-25T14:43:25.064Z,27.79
2023-05-25T14:45:53.298Z,27.69
2023-05-25T14:48:24.803Z,27.62
2023-05-25T14:50:52.916Z,27.50
2023-05-25T14:53:21.211Z,27.37
2023-05-25T14:55:49.290Z,27.32
2023-05-25T14:58:17.596Z,27.30
2023-05-25T15:00:45.926Z,27.30
2023-05-25T15:03:14.056Z,27.30
2023-05-25T15:05:42.642Z,27.31
2023-05-25T15:08:10.986Z,27.25
2023-05-25T15:10:39.033Z,27.09
2023-05-25T15:13:07.005Z,26.72
2023-05-25T15:15:35.629Z,26.35
2023-05-25T15:18:04.208Z,26.09
2023-05-25T15:20:32.515Z,25.89
2023-05-25T15:23:00.520Z,25.62
2023-05-25T15:25:35.098Z,25.27
2023-05-25T15:28:04.038Z,24.93
2023-05-25T15:30:33.807Z,24.68
2023-05-25T15:33:02.304Z,24.50
2023-05-25T15:35:33.186Z,24.33
2023-05-25T15:38:01.894Z,24.16
2023-05-25T15:40:30.342Z,24.04
2023-05-25T15:42:58.617Z,23.94
2023-05-25T15:45:27.012Z,23.86
2023-05-25T15:47:55.109Z,23.84
2023-05-25T15:50:23.245Z,23.81
2023-05-25T15:52:51.729Z,23.73
2023-05-25T15:55:20.322Z,23.65
2023-05-25T15:57:48.502Z,23.59
2023-05-25T16:00:17.380Z,23.54
2023-05-25T16:02:45.447Z,23.55
2023-05-25T16:05:13.736Z,23.58
2023-05-25T16:07:41.617Z,23.59
2023-05-25T16:10:10.312Z,23.57
2023-05-25T16:12:38.473Z,23.52
2023-05-25T16:15:07.556Z,23.51
2023-05-25T16:17:35.534Z,23.53
2023-05-25T16:20:12.373Z,23.50
2023-05-25T16:22:41.164Z,23.47
2023-05-25T16:25:10.175Z,23.47
2023-05-25T16:27:38.617Z,23.46
2023-05-25T16:30:08.614Z,23.45
2023-05-25T16:32:36.686Z,23.44
2023-05-25T16:35:05.787Z,23.42
2023-05-25T16:37:33.697Z,23.39
2023-05-25T16:40:02.213Z,23.34
2023-05-25T16:42:35.653Z,23.28
2023-05-25T16:45:04.340Z,23.24
2023-05-25T16:47:32.232Z,23.20
2023-05-25T16:50:00.535Z,23.15
2023-05-25T16:52:28.592Z,23.12
2023-05-25T16:54:58.607Z,23.10
2023-05-25T16:57:26.498Z,23.07
2023-05-25T16:59:55.876Z,23.05
2023-05-25T17:02:26.325Z,23.02
2023-05-25T17:04:54.579Z,22.98
2023-05-25T17:07:22.400Z,22.94
2023-05-25T17:09:50.318Z,22.90
2023-05-25T17:12:18.067Z,22.86
2023-05-25T17:14:46.149Z,22.82
2023-05-25T17:17:14.173Z,22.77
2023-05-25T17:19:42.076Z,22.72
2023-05-25T17:22:10.230Z,22.67
2023-05-25T17:24:38.260Z,22.61
2023-05-25T17:27:06.197Z,22.53
2023-05-25T17:29:34.575Z,22.48
2023-05-25T17:32:02.639Z,22.43
2023-05-25T17:34:30.786Z,22.37
2023-05-25T17:36:59.152Z,22.32
2023-05-25T17:39:28.521Z,22.27
2023-05-25T17:41:56.891Z,22.22
2023-05-25T17:44:26.392Z,22.20
2023-05-25T17:46:54.674Z,22.18
2023-05-25T17:49:22.803Z,22.12
2023-05-25T17:51:51.370Z,22.05
2023-05-25T17:54:24.803Z,21.96
2023-05-25T17:56:53.742Z,21.85
2023-05-25T17:59:22.034Z,21.74
2023-05-25T18:01:51.540Z,21.64
2023-05-25T18:04:20.173Z,21.54
2023-05-25T18:06:51.850Z,21.46
2023-05-25T18:09:21.145Z,21.35
2023-05-25T18:11:49.739Z,21.25
2023-05-25T18:14:18.217Z,21.15
2023-05-25T18:16:46.389Z,21.08
2023-05-25T18:19:16.241Z,21.01
2023-05-25T18:21:44.578Z,20.94
2023-05-25T18:24:12.876Z,20.88
2023-05-25T18:26:41.850Z,20.83
2023-05-25T18:29:09.794Z,20.78
2023-05-25T18:31:38.066Z,20.74
2023-05-25T18:34:06.807Z,20.71
2023-05-25T18:36:36.029Z,20.67
2023-05-25T18:39:04.976Z,20.65
2023-05-25T18:41:33.461Z,20.63
2023-05-25T18:44:01.742Z,20.59
2023-05-25T18:46:30.173Z,20.55
2023-05-25T18:48:58.422Z,20.51
2023-05-25T18:51:26.312Z,20.49
2023-05-25T18:53:54.532Z,20.45
2023-05-25T18:56:25.916Z,20.40
2023-05-25T18:58:56.833Z,20.36
2023-05-25T19:01:25.491Z,20.34
2023-05-25T19:03:56.664Z,20.31
2023-05-25T19:06:26.762Z,20.31
2023-05-25T19:08:54.873Z,20.31
2023-05-25T19:11:23.005Z,20.30
2023-05-25T19:13:55.358Z,20.31
2023-05-25T19:16:23.305Z,20.30
2023-05-25T19:18:51.238Z,20.30
2023-05-25T19:21:19.916Z,20.30
2023-05-25T19:23:48.158Z,20.33
2023-05-25T19:26:16.193Z,20.35
2023-05-25T19:28:47.453Z,20.36
2023-05-25T19:31:15.785Z,20.38
2023-05-25T19:33:43.723Z,20.41
2023-05-25T19:36:11.636Z,20.40
2023-05-25T19:38:42.173Z,20.40
2023-05-25T19:41:10.737Z,20.37
2023-05-25T19:43:39.005Z,20.35
2023-05-25T19:46:07.260Z,20.31
2023-05-25T19:48:35.966Z,20.29
2023-05-25T19:51:03.880Z,20.27
2023-05-25T19:53:32.318Z,20.26
2023-05-25T19:56:03.168Z,20.24
2023-05-25T19:58:31.022Z,20.23
2023-05-25T20:00:59.200Z,20.22
2023-05-25T20:03:27.353Z,20.21
2023-05-25T20:05:55.831Z,20.18
2023-05-25T20:08:25.020Z,20.15
2023-05-25T20:10:55.094Z,20.13
2023-05-25T20:13:23.481Z,20.11
2023-05-25T20:15:51.467Z,20.08
2023-05-25T20:18:23.125Z,20.05
2023-05-25T20:20:51.502Z,20.01
2023-05-25T20:23:19.492Z,19.96
2023-05-25T20:25:48.047Z,19.91
2023-05-25T20:28:16.383Z,19.86
2023-05-25T20:30:45.322Z,19.83
2023-05-25T20:33:13.690Z,19.80
2023-05-25T20:35:41.822Z,19.77
2023-05-25T20:38:10.031Z,19.74
2023-05-25T20:40:38.199Z,19.72
2023-05-25T20:43:05.965Z,19.72
2023-05-25T20:45:34.521Z,19.71
2023-05-25T20:48:05.603Z,19.71
2023-05-25T20:50:33.951Z,19.70
2023-05-25T20:53:02.224Z,19.71
2023-05-25T20:55:30.908Z,19.70
2023-05-25T20:58:00.417Z,19.68
2023-05-25T21:00:28.665Z,19.65
2023-05-25T21:02:57.073Z,19.62
2023-05-25T21:05:25.256Z,19.58
2023-05-25T21:07:53.338Z,19.53
2023-05-25T21:10:21.907Z,19.49
2023-05-25T21:12:50.696Z,19.47
2023-05-25T21:15:19.027Z,19.42
2023-05-25T21:17:49.434Z,19.38
2023-05-25T21:20:18.637Z,19.33
2023-05-25T21:22:46.792Z,19.26
2023-05-25T21:25:15.010Z,19.19
2023-05-25T21:27:43.108Z,19.08
2023-05-25T21:30:15.357Z,18.98
2023-05-25T21:32:43.409Z,18.85
2023-05-25T21:35:11.743Z,18.75
2023-05-25T21:37:40.269Z,18.67
2023-05-25T21:40:09.109Z,18.57
2023-05-25T21:42:37.178Z,18.49
2023-05-25T21:45:06.505Z,18.42
2023-05-25T21:47:34.717Z,18.34
2023-05-25T21:50:03.364Z,18.27
2023-05-25T21:52:31.516Z,18.21
2023-05-25T21:54:59.353Z,18.15
2023-05-25T21:57:27.553Z,18.10
2023-05-25T21:59:55.938Z,18.06
2023-05-25T22:02:24.279Z,18.01
2023-05-25T22:04:53.229Z,17.92
2023-05-25T22:07:21.580Z,17.87
2023-05-25T22:09:49.978Z,17.82
2023-05-25T22:12:19.570Z,17.77
2023-05-25T22:14:47.789Z,17.72
2023-05-25T22:17:16.852Z,17.69
2023-05-25T22:19:52.140Z,17.69
2023-05-25T22:22:27.420Z,17.68
2023-05-25T22:24:55.289Z,17.69
2023-05-25T22:27:23.253Z,17.69
2023-05-25T22:29:51.242Z,17.72
2023-05-25T22:32:19.502Z,17.74
2023-05-25T22:34:47.674Z,17.76
2023-05-25T22:37:16.977Z,17.79
2023-05-25T22:39:44.944Z,17.81
2023-05-25T22:42:13.157Z,17.84
2023-05-25T22:44:41.092Z,17.86
2023-05-25T22:47:08.946Z,17.88
2023-05-25T22:49:41.264Z,17.91
2023-05-25T22:52:12.413Z,17.92
2023-05-25T22:54:43.984Z,17.92
2023-05-25T22:57:12.313Z,17.92
2023-05-25T22:59:40.496Z,17.90
2023-05-25T23:02:08.607Z,17.89
2023-05-25T23:04:37.647Z,17.87
2023-05-25T23:07:05.607Z,17.83
2023-05-25T23:09:33.640Z,17.80
2023-05-25T23:12:01.775Z,17.76
2023-05-25T23:14:30.245Z,17.72
2023-05-25T23:16:58.310Z,17.71
2023-05-25T23:19:26.501Z,17.70
2023-05-25T23:21:55.232Z,17.66
2023-05-25T23:24:23.349Z,17.61
2023-05-25T23:26:51.417Z,17.58
2023-05-25T23:29:19.290Z,17.57
2023-05-25T23:31:47.400Z,17.56
2023-05-25T23:34:15.529Z,17.53
2023-05-25T23:36:43.638Z,17.53
2023-05-25T23:39:12.604Z,17.52
2023-05-25T23:41:40.671Z,17.52
2023-05-25T23:44:08.562Z,17.51
2023-05-25T23:46:36.482Z,17.50
2023-05-25T23:49:04.684Z,17.48
2023-05-25T23:51:32.569Z,17.44
2023-05-25T23:54:00.723Z,17.39
2023-05-25T23:56:28.702Z,17.34
2023-05-25T23:58:56.469Z,17.29
